Time;durP1;ratioP1;P1;durP2;ratioP2;P2;SDS_P1;SDS_P2;PMS_P1;PMS_P2;Temp;Humidity;BMP_temperature;BMP_pressure;BME280_temperature;BME280_humidity;BME280_pressure;Samples;Min_cycle;Max_cycle;Signal;HPM_P1;HPM_P2
2022/11/06 00:00:22;;;;;;;;;;;13.10;73.20;;;;;;4931682;29;20790;-83
2022/11/06 00:02:48;;;;;;;;;;;13.10;73.80;;;;;;4943549;28;19919;-84
2022/11/06 00:07:58;;;;;;;;;;;13.10;73.10;;;;;;4947952;29;19918;-83
2022/11/06 00:10:23;;;;;;;;;;;13.00;73.10;;;;;;4930599;29;19933;-83
2022/11/06 00:12:49;;;;;;;;;;;13.00;73.20;;;;;;4946298;29;20260;-84
2022/11/06 00:15:15;;;;;;;;;;;13.10;73.20;;;;;;4934300;29;19927;-84
2022/11/06 00:17:40;;;;;;;;;;;13.10;73.10;;;;;;4943299;28;19930;-83
2022/11/06 00:20:06;;;;;;;;;;;13.00;73.10;;;;;;4948999;29;19926;-83
2022/11/06 00:22:33;;;;;;;;;;;13.00;73.10;;;;;;4946994;28;19937;-82
2022/11/06 00:24:59;;;;;;;;;;;13.00;73.10;;;;;;4951802;28;20356;-82
2022/11/06 00:27:25;;;;;;;;;;;13.00;73.10;;;;;;4949135;28;19925;-84
2022/11/06 00:29:50;;;;;;;;;;;13.00;73.10;;;;;;4950907;28;19914;-83
2022/11/06 00:32:16;;;;;;;;;;;13.00;73.10;;;;;;4947682;29;20276;-84
2022/11/06 00:34:41;;;;;;;;;;;13.00;73.10;;;;;;4949620;29;19915;-83
2022/11/06 00:37:07;;;;;;;;;;;13.00;73.10;;;;;;4950626;29;20021;-82
2022/11/06 00:39:32;;;;;;;;;;;13.00;73.10;;;;;;4949188;29;20332;-81
2022/11/06 00:41:58;;;;;;;;;;;13.00;73.10;;;;;;4941133;29;19915;-83
2022/11/06 00:44:24;;;;;;;;;;;13.00;73.10;;;;;;4952484;28;19926;-82
2022/11/06 00:46:49;;;;;;;;;;;13.00;73.10;;;;;;4946519;29;19922;-83
2022/11/06 00:49:15;;;;;;;;;;;13.00;73.10;;;;;;4934856;29;19914;-83
2022/11/06 00:51:41;;;;;;;;;;;13.00;73.10;;;;;;4933813;29;19946;-83
2022/11/06 00:54:10;;;;;;;;;;;13.00;73.20;;;;;;4948875;29;20375;-83
2022/11/06 00:56:35;;;;;;;;;;;12.90;73.10;;;;;;4951354;29;19922;-83
2022/11/06 00:59:03;;;;;;;;;;;12.90;73.10;;;;;;4952107;28;19941;-83
2022/11/06 01:01:30;;;;;;;;;;;12.90;73.10;;;;;;4933337;29;20076;-83
2022/11/06 01:04:00;;;;;;;;;;;12.90;73.10;;;;;;4950586;29;19919;-83
2022/11/06 01:06:27;;;;;;;;;;;12.90;73.10;;;;;;4946375;29;19915;-84
2022/11/06 01:08:53;;;;;;;;;;;12.90;73.10;;;;;;4945581;29;19921;-80
2022/11/06 01:11:19;;;;;;;;;;;12.90;73.80;;;;;;4933241;29;20291;-81
2022/11/06 01:13:47;;;;;;;;;;;12.90;73.10;;;;;;4944634;29;19925;-83
2022/11/06 01:16:14;;;;;;;;;;;12.90;73.10;;;;;;4941149;28;19923;-83
2022/11/06 01:18:41;;;;;;;;;;;12.90;73.10;;;;;;4932807;29;20651;-83
2022/11/06 01:21:14;;;;;;;;;;;12.90;73.20;;;;;;4943458;28;19919;-81
2022/11/06 01:23:40;;;;;;;;;;;12.90;73.20;;;;;;4949970;29;20427;-83
2022/11/06 01:26:06;;;;;;;;;;;12.90;73.20;;;;;;4943090;29;19918;-82
2022/11/06 01:28:32;;;;;;;;;;;12.90;73.20;;;;;;4942919;29;19920;-80
2022/11/06 01:31:05;;;;;;;;;;;12.90;73.20;;;;;;4933471;29;19922;-83
2022/11/06 01:33:31;;;;;;;;;;;12.90;73.20;;;;;;4947253;28;19922;-83
2022/11/06 01:35:56;;;;;;;;;;;12.90;73.20;;;;;;4910367;29;19927;-83
2022/11/06 01:38:22;;;;;;;;;;;12.80;73.20;;;;;;4946558;28;19921;-83
2022/11/06 01:40:48;;;;;;;;;;;12.80;73.20;;;;;;4947530;28;20275;-83
2022/11/06 01:43:16;;;;;;;;;;;12.80;73.20;;;;;;4932623;29;19927;-82
2022/11/06 01:45:43;;;;;;;;;;;12.80;73.20;;;;;;4952483;29;19922;-83
2022/11/06 01:48:09;;;;;;;;;;;12.80;73.20;;;;;;4948436;28;19925;-83
2022/11/06 01:50:35;;;;;;;;;;;12.80;73.20;;;;;;4951690;28;19915;-83
2022/11/06 01:53:01;;;;;;;;;;;12.80;73.20;;;;;;4930255;29;20013;-82
2022/11/06 01:55:33;;;;;;;;;;;12.80;73.20;;;;;;4931622;29;19997;-82
2022/11/06 01:58:00;;;;;;;;;;;12.80;73.20;;;;;;4933120;29;20009;-82
2022/11/06 02:00:26;;;;;;;;;;;12.80;73.20;;;;;;4953953;29;19919;-83
2022/11/06 02:02:52;;;;;;;;;;;12.80;73.20;;;;;;4938642;29;19919;-83
2022/11/06 02:05:17;;;;;;;;;;;12.80;73.20;;;;;;4951553;28;20409;-82
2022/11/06 02:07:43;;;;;;;;;;;12.80;73.20;;;;;;4953946;29;19965;-83
2022/11/06 02:10:09;;;;;;;;;;;12.80;73.20;;;;;;4931138;29;19922;-82
2022/11/06 02:12:48;;;;;;;;;;;12.80;73.20;;;;;;4951414;29;19918;-83
2022/11/06 02:15:14;;;;;;;;;;;12.80;73.20;;;;;;4946742;28;19985;-85
2022/11/06 02:17:45;;;;;;;;;;;12.80;73.20;;;;;;4953885;28;19930;-84
2022/11/06 02:20:11;;;;;;;;;;;12.80;73.20;;;;;;4946008;29;20390;-83
2022/11/06 02:22:43;;;;;;;;;;;12.80;73.20;;;;;;4930747;29;20001;-84
2022/11/06 02:25:09;;;;;;;;;;;12.80;73.20;;;;;;4935532;29;19923;-83
2022/11/06 02:27:35;;;;;;;;;;;12.80;73.20;;;;;;4950445;29;19961;-83
2022/11/06 02:30:00;;;;;;;;;;;12.80;73.20;;;;;;4952212;29;20001;-83
2022/11/06 02:32:32;;;;;;;;;;;12.80;73.20;;;;;;4952167;28;20005;-85
2022/11/06 02:34:59;;;;;;;;;;;12.70;73.20;;;;;;4951978;29;19921;-82
2022/11/06 02:37:26;;;;;;;;;;;12.80;73.20;;;;;;4948923;29;19922;-82
2022/11/06 02:39:54;;;;;;;;;;;12.70;73.20;;;;;;4953574;29;19921;-82
2022/11/06 02:42:20;;;;;;;;;;;12.80;73.20;;;;;;4952385;29;20012;-83
2022/11/06 02:44:48;;;;;;;;;;;12.80;73.20;;;;;;4945142;28;19927;-83
2022/11/06 02:47:14;;;;;;;;;;;12.70;73.10;;;;;;4953342;29;20335;-82
2022/11/06 02:49:45;;;;;;;;;;;12.70;73.10;;;;;;4937048;29;20021;-83
2022/11/06 02:52:13;;;;;;;;;;;12.70;73.10;;;;;;4950831;28;19953;-83
2022/11/06 02:54:42;;;;;;;;;;;12.70;73.10;;;;;;4952516;28;19918;-83
2022/11/06 02:57:09;;;;;;;;;;;12.70;73.10;;;;;;4949832;28;20017;-84
2022/11/06 02:59:34;;;;;;;;;;;12.70;73.10;;;;;;4948338;29;19929;-83
2022/11/06 03:02:02;;;;;;;;;;;12.70;73.10;;;;;;4945071;28;19914;-83
2022/11/06 03:04:34;;;;;;;;;;;12.70;73.10;;;;;;4947553;28;20356;-83
2022/11/06 03:07:14;;;;;;;;;;;12.70;73.20;;;;;;4948097;29;19918;-81
2022/11/06 03:09:40;;;;;;;;;;;12.70;73.10;;;;;;4966431;28;20013;-83
2022/11/06 03:12:17;;;;;;;;;;;12.70;73.20;;;;;;4937015;29;20017;-84
2022/11/06 03:15:06;;;;;;;;;;;12.70;73.20;;;;;;4953526;29;19926;-82
2022/11/06 03:17:32;;;;;;;;;;;12.70;73.20;;;;;;4946903;29;19922;-81
2022/11/06 03:20:07;;;;;;;;;;;12.70;73.20;;;;;;4954555;29;19917;-83
2022/11/06 03:22:53;;;;;;;;;;;12.70;73.20;;;;;;4953137;28;20431;-82
2022/11/06 03:25:22;;;;;;;;;;;12.70;73.20;;;;;;4953680;29;20009;-83
2022/11/06 03:28:22;;;;;;;;;;;12.70;73.20;;;;;;4943523;29;20431;-83
2022/11/06 03:30:49;;;;;;;;;;;12.70;73.30;;;;;;4929483;29;19921;-82
2022/11/06 03:33:18;;;;;;;;;;;12.70;73.30;;;;;;4946154;28;19914;-83
2022/11/06 03:35:49;;;;;;;;;;;12.70;73.30;;;;;;4966944;28;19918;-83
2022/11/06 03:38:21;;;;;;;;;;;12.70;73.30;;;;;;4942254;29;19926;-81
2022/11/06 03:40:50;;;;;;;;;;;12.70;73.30;;;;;;4947780;28;19919;-84
2022/11/06 03:43:18;;;;;;;;;;;12.70;73.30;;;;;;4946606;29;20459;-82
2022/11/06 03:45:45;;;;;;;;;;;12.70;73.30;;;;;;4947770;28;20287;-83
2022/11/06 03:48:20;;;;;;;;;;;12.70;73.30;;;;;;4934724;29;19974;-83
2022/11/06 03:50:57;;;;;;;;;;;12.70;73.30;;;;;;4952148;29;20295;-82
2022/11/06 03:53:33;;;;;;;;;;;12.70;73.30;;;;;;4967062;28;19961;-80
2022/11/06 03:56:07;;;;;;;;;;;12.70;73.30;;;;;;4941198;28;20391;-82
2022/11/06 03:58:36;;;;;;;;;;;12.70;73.30;;;;;;4947180;28;20304;-82
2022/11/06 04:01:03;;;;;;;;;;;12.70;73.30;;;;;;4949082;28;19918;-82
2022/11/06 04:03:31;;;;;;;;;;;12.70;73.30;;;;;;4945320;29;19973;-81
2022/11/06 04:06:12;;;;;;;;;;;12.70;73.30;;;;;;4945419;29;19970;-82
2022/11/06 04:14:10;;;;;;;;;;;12.70;73.20;;;;;;4947890;28;19929;-82
2022/11/06 04:16:43;;;;;;;;;;;12.70;73.30;;;;;;4947303;28;19977;-82
2022/11/06 04:19:13;;;;;;;;;;;12.70;73.30;;;;;;4952328;28;20283;-82
2022/11/06 04:21:45;;;;;;;;;;;12.70;73.30;;;;;;4949259;28;19914;-82
2022/11/06 04:27:24;;;;;;;;;;;12.80;73.30;;;;;;4967501;28;19923;-83
2022/11/06 04:30:02;;;;;;;;;;;12.70;73.20;;;;;;4948636;29;19993;-83
2022/11/06 04:32:51;;;;;;;;;;;12.70;73.20;;;;;;4950610;28;19922;-82
2022/11/06 04:35:16;;;;;;;;;;;12.80;73.20;;;;;;4943926;28;19966;-81
2022/11/06 04:37:46;;;;;;;;;;;12.70;73.20;;;;;;4946853;29;19922;-82
2022/11/06 04:40:21;;;;;;;;;;;12.80;73.20;;;;;;4949674;29;20375;-82
2022/11/06 04:42:53;;;;;;;;;;;12.80;73.20;;;;;;4941008;28;19937;-82
2022/11/06 04:45:28;;;;;;;;;;;12.80;73.20;;;;;;4945255;29;20053;-81
2022/11/06 04:47:54;;;;;;;;;;;12.80;73.20;;;;;;4942584;29;20422;-82
2022/11/06 04:50:21;;;;;;;;;;;12.80;73.20;;;;;;4946774;29;19922;-82
2022/11/06 04:52:48;;;;;;;;;;;12.80;73.30;;;;;;4944556;28;19942;-84
2022/11/06 04:55:13;;;;;;;;;;;12.80;73.20;;;;;;4952392;28;19914;-81
2022/11/06 04:57:39;;;;;;;;;;;12.80;73.20;;;;;;4933988;29;19978;-82
2022/11/06 05:00:05;;;;;;;;;;;12.80;73.20;;;;;;4941488;29;19922;-82
2022/11/06 05:02:31;;;;;;;;;;;12.80;73.20;;;;;;4932482;29;20402;-82
2022/11/06 05:04:56;;;;;;;;;;;12.80;73.20;;;;;;4933947;29;19969;-82
2022/11/06 05:07:22;;;;;;;;;;;12.80;73.80;;;;;;4948431;28;19914;-81
2022/11/06 05:09:48;;;;;;;;;;;12.80;73.20;;;;;;4945528;28;20419;-82
2022/11/06 05:12:13;;;;;;;;;;;12.80;73.20;;;;;;4948934;28;20311;-82
2022/11/06 05:14:39;;;;;;;;;;;12.80;73.20;;;;;;4942923;29;20415;-83
2022/11/06 05:17:04;;;;;;;;;;;12.80;73.20;;;;;;4935195;29;19930;-82
2022/11/06 05:19:30;;;;;;;;;;;12.80;73.20;;;;;;4932437;29;19946;-82
2022/11/06 05:24:40;;;;;;;;;;;12.80;73.20;;;;;;4938003;29;20017;-81
2022/11/06 05:27:06;;;;;;;;;;;12.80;73.20;;;;;;4934201;29;20001;-85
2022/11/06 05:29:31;;;;;;;;;;;12.80;73.20;;;;;;4915329;29;20362;-82
2022/11/06 05:31:57;;;;;;;;;;;12.80;73.20;;;;;;4945281;28;19923;-82
2022/11/06 05:34:22;;;;;;;;;;;12.80;73.20;;;;;;4933759;29;19926;-82
2022/11/06 05:36:48;;;;;;;;;;;12.80;73.20;;;;;;4948159;28;20291;-82
2022/11/06 05:39:14;;;;;;;;;;;12.80;73.20;;;;;;4952841;28;19919;-82
2022/11/06 05:41:39;;;;;;;;;;;12.80;73.20;;;;;;4947587;29;19923;-82
2022/11/06 05:44:05;;;;;;;;;;;12.80;73.80;;;;;;4934828;29;19934;-83
2022/11/06 05:46:31;;;;;;;;;;;12.80;73.20;;;;;;4945906;29;19927;-82
2022/11/06 05:48:56;;;;;;;;;;;12.80;73.20;;;;;;4951811;29;19915;-82
2022/11/06 05:51:22;;;;;;;;;;;12.80;73.20;;;;;;4935906;29;19919;-82
2022/11/06 05:53:47;;;;;;;;;;;12.80;73.20;;;;;;4952201;28;20299;-82
2022/11/06 05:56:13;;;;;;;;;;;12.80;73.20;;;;;;4949746;29;20389;-82
2022/11/06 05:58:39;;;;;;;;;;;12.80;73.20;;;;;;4934360;29;20176;-81
2022/11/06 06:01:05;;;;;;;;;;;12.80;73.20;;;;;;4939542;28;19926;-81
2022/11/06 06:03:30;;;;;;;;;;;12.80;73.20;;;;;;4919587;29;19925;-82
2022/11/06 06:05:56;;;;;;;;;;;12.80;73.20;;;;;;4942005;29;19914;-82
2022/11/06 06:08:22;;;;;;;;;;;12.80;73.20;;;;;;4930205;29;20022;-81
2022/11/06 06:10:47;;;;;;;;;;;12.80;73.20;;;;;;4948073;28;19965;-83
2022/11/06 06:13:13;;;;;;;;;;;12.90;73.20;;;;;;4949280;29;19921;-82
2022/11/06 06:15:39;;;;;;;;;;;12.90;73.30;;;;;;4949946;29;20327;-82
2022/11/06 06:18:05;;;;;;;;;;;12.80;73.20;;;;;;4953353;29;19922;-82
2022/11/06 06:20:31;;;;;;;;;;;12.80;73.20;;;;;;4952999;28;20363;-81
2022/11/06 06:22:57;;;;;;;;;;;12.90;73.30;;;;;;4921411;29;19990;-81
2022/11/06 06:25:23;;;;;;;;;;;12.80;73.20;;;;;;4951002;28;20632;-82
2022/11/06 06:27:49;;;;;;;;;;;12.80;73.20;;;;;;4944632;28;19937;-83
2022/11/06 06:30:15;;;;;;;;;;;12.90;73.90;;;;;;4933734;29;20360;-83
2022/11/06 06:32:41;;;;;;;;;;;12.90;73.20;;;;;;4933094;29;19941;-81
2022/11/06 06:35:07;;;;;;;;;;;12.80;73.20;;;;;;4932314;29;20431;-81
2022/11/06 06:37:32;;;;;;;;;;;12.90;73.20;;;;;;4930026;29;19926;-82
2022/11/06 06:39:58;;;;;;;;;;;12.90;73.20;;;;;;4936998;29;19969;-82
2022/11/06 06:42:23;;;;;;;;;;;12.90;73.20;;;;;;4935336;29;19965;-82
2022/11/06 06:44:49;;;;;;;;;;;12.90;73.30;;;;;;4934926;29;20462;-81
2022/11/06 06:47:18;;;;;;;;;;;12.90;73.30;;;;;;4949512;28;20639;-80
2022/11/06 06:49:43;;;;;;;;;;;12.90;73.30;;;;;;4939273;29;19962;-82
2022/11/06 06:52:09;;;;;;;;;;;12.90;73.30;;;;;;4949532;28;20642;-81
2022/11/06 06:54:35;;;;;;;;;;;12.90;73.20;;;;;;4936272;29;19915;-81
2022/11/06 06:57:01;;;;;;;;;;;12.90;73.20;;;;;;4953946;28;19961;-81
2022/11/06 06:59:27;;;;;;;;;;;12.90;73.20;;;;;;4949257;29;20005;-82
2022/11/06 07:01:53;;;;;;;;;;;12.90;73.20;;;;;;4944086;28;20397;-83
2022/11/06 07:04:19;;;;;;;;;;;12.90;73.30;;;;;;4950059;28;19918;-82
2022/11/06 07:06:45;;;;;;;;;;;12.90;73.20;;;;;;4950998;29;19921;-83
2022/11/06 07:09:10;;;;;;;;;;;12.90;73.20;;;;;;4944004;28;20021;-83
2022/11/06 07:11:36;;;;;;;;;;;12.90;73.20;;;;;;4932800;29;19922;-82
2022/11/06 07:14:02;;;;;;;;;;;12.90;73.20;;;;;;4947923;28;20001;-83
2022/11/06 07:16:28;;;;;;;;;;;12.90;73.20;;;;;;4963817;28;19922;-81
2022/11/06 07:18:54;;;;;;;;;;;12.90;73.30;;;;;;4955226;28;19989;-81
2022/11/06 07:21:20;;;;;;;;;;;12.90;73.20;;;;;;4952200;28;19925;-81
2022/11/06 07:23:46;;;;;;;;;;;12.90;73.20;;;;;;4938377;28;19915;-81
2022/11/06 07:26:12;;;;;;;;;;;12.90;73.20;;;;;;4951681;28;19929;-82
2022/11/06 07:28:37;;;;;;;;;;;12.90;73.20;;;;;;4951498;28;19915;-83
2022/11/06 07:31:04;;;;;;;;;;;12.90;73.20;;;;;;4936185;29;20013;-81
2022/11/06 07:33:30;;;;;;;;;;;12.90;73.30;;;;;;4950839;28;19922;-81
2022/11/06 07:36:01;;;;;;;;;;;13.00;73.30;;;;;;4947354;28;19915;-82
2022/11/06 07:38:26;;;;;;;;;;;13.00;73.30;;;;;;4950365;28;19914;-82
2022/11/06 07:40:52;;;;;;;;;;;13.00;73.30;;;;;;4952020;28;19910;-83
2022/11/06 07:43:18;;;;;;;;;;;13.00;73.30;;;;;;4946659;29;19923;-82
2022/11/06 07:45:43;;;;;;;;;;;13.00;73.30;;;;;;4951112;28;19926;-82
2022/11/06 07:48:09;;;;;;;;;;;13.00;73.60;;;;;;4949576;29;20407;-81
2022/11/06 07:50:35;;;;;;;;;;;13.00;73.30;;;;;;4950946;28;19915;-82
2022/11/06 07:53:01;;;;;;;;;;;13.00;73.30;;;;;;4934505;29;19926;-81
2022/11/06 07:55:27;;;;;;;;;;;13.00;73.30;;;;;;4951170;28;19915;-81
2022/11/06 07:57:53;;;;;;;;;;;13.00;73.30;;;;;;4953656;28;19929;-82
2022/11/06 08:00:19;;;;;;;;;;;13.00;73.30;;;;;;4950091;28;19910;-80
2022/11/06 08:02:49;;;;;;;;;;;13.00;73.30;;;;;;4946293;29;19926;-82
2022/11/06 08:05:14;;;;;;;;;;;13.00;73.30;;;;;;4952861;28;20412;-81
2022/11/06 08:07:40;;;;;;;;;;;13.10;73.40;;;;;;4951751;28;19926;-81
2022/11/06 08:10:06;;;;;;;;;;;13.10;73.40;;;;;;4938854;28;19957;-82
2022/11/06 08:12:32;;;;;;;;;;;13.10;73.40;;;;;;4932347;28;19930;-83
2022/11/06 08:14:57;;;;;;;;;;;13.10;73.40;;;;;;4947435;28;19937;-82
2022/11/06 08:17:23;;;;;;;;;;;13.10;73.40;;;;;;4935871;29;20292;-82
2022/11/06 08:19:49;;;;;;;;;;;13.00;73.30;;;;;;4948249;28;19993;-82
2022/11/06 08:22:15;;;;;;;;;;;13.10;73.40;;;;;;4930956;29;19923;-84
2022/11/06 08:24:40;;;;;;;;;;;13.10;73.40;;;;;;4948470;28;19921;-83
2022/11/06 08:27:06;;;;;;;;;;;13.10;73.40;;;;;;4946354;28;20360;-83
2022/11/06 08:29:32;;;;;;;;;;;13.10;73.40;;;;;;4930274;29;19922;-81
2022/11/06 08:31:57;;;;;;;;;;;13.10;73.40;;;;;;4947643;28;20009;-81
2022/11/06 08:34:23;;;;;;;;;;;13.10;73.40;;;;;;4932159;29;19926;-81
2022/11/06 08:36:50;;;;;;;;;;;13.20;73.40;;;;;;4950036;28;20286;-81
2022/11/06 08:39:16;;;;;;;;;;;13.20;73.40;;;;;;4931598;29;19918;-81
2022/11/06 08:41:43;;;;;;;;;;;13.20;73.40;;;;;;4949122;28;20005;-81
2022/11/06 08:44:09;;;;;;;;;;;13.20;73.40;;;;;;4944492;28;19922;-81
2022/11/06 08:46:35;;;;;;;;;;;13.20;73.50;;;;;;4950568;29;20274;-80
2022/11/06 08:49:00;;;;;;;;;;;13.20;73.40;;;;;;4917416;29;20323;-80
2022/11/06 08:51:26;;;;;;;;;;;13.20;73.40;;;;;;4945345;29;19954;-80
2022/11/06 08:53:52;;;;;;;;;;;13.30;73.50;;;;;;4946526;28;19925;-81
2022/11/06 08:56:18;;;;;;;;;;;13.30;73.50;;;;;;4931598;29;20295;-81
2022/11/06 08:58:43;;;;;;;;;;;13.30;73.50;;;;;;4932733;29;20287;-81
2022/11/06 09:01:09;;;;;;;;;;;13.30;73.40;;;;;;4945854;28;19994;-80
2022/11/06 09:03:35;;;;;;;;;;;13.30;73.40;;;;;;4934733;29;19926;-82
2022/11/06 09:06:00;;;;;;;;;;;13.30;73.40;;;;;;4922305;29;20017;-81
2022/11/06 09:08:26;;;;;;;;;;;13.40;73.50;;;;;;4945825;28;19918;-79
2022/11/06 09:10:52;;;;;;;;;;;13.40;73.50;;;;;;4951133;29;19919;-79
2022/11/06 09:13:17;;;;;;;;;;;13.40;73.40;;;;;;4951325;29;19965;-79
2022/11/06 09:15:43;;;;;;;;;;;13.40;73.40;;;;;;4951923;29;20388;-81
2022/11/06 09:18:10;;;;;;;;;;;13.40;73.40;;;;;;4951417;28;20258;-80
2022/11/06 09:20:35;;;;;;;;;;;13.40;74.00;;;;;;4953588;28;19915;-81
2022/11/06 09:23:02;;;;;;;;;;;13.40;73.40;;;;;;4950562;28;19999;-81
2022/11/06 09:25:28;;;;;;;;;;;13.50;73.40;;;;;;4950258;29;19974;-81
2022/11/06 09:27:54;;;;;;;;;;;13.50;73.40;;;;;;4936013;28;19919;-81
2022/11/06 09:30:21;;;;;;;;;;;13.50;73.40;;;;;;4935200;29;19927;-81
2022/11/06 09:32:49;;;;;;;;;;;13.50;73.40;;;;;;4953492;29;20418;-80
2022/11/06 09:35:14;;;;;;;;;;;13.50;73.40;;;;;;4951132;29;19922;-80
2022/11/06 09:37:40;;;;;;;;;;;13.60;73.40;;;;;;4936039;29;19926;-80
2022/11/06 09:40:07;;;;;;;;;;;13.60;73.50;;;;;;4950667;28;20291;-79
2022/11/06 09:42:41;;;;;;;;;;;13.60;73.40;;;;;;4952494;28;19915;-80
2022/11/06 09:45:12;;;;;;;;;;;13.60;73.40;;;;;;4953086;29;19918;-81
2022/11/06 09:47:40;;;;;;;;;;;13.60;73.40;;;;;;4953559;28;19914;-82
2022/11/06 09:50:10;;;;;;;;;;;13.60;73.40;;;;;;4952365;28;20325;-81
2022/11/06 09:52:49;;;;;;;;;;;13.70;73.50;;;;;;4953773;29;19953;-81
2022/11/06 09:55:18;;;;;;;;;;;13.70;73.50;;;;;;4954575;29;20008;-80
2022/11/06 09:57:46;;;;;;;;;;;13.70;73.40;;;;;;4954485;28;19914;-82
2022/11/06 10:00:13;;;;;;;;;;;13.70;73.40;;;;;;4953653;28;19918;-81
2022/11/06 10:02:42;;;;;;;;;;;13.80;73.50;;;;;;4952615;29;20216;-80
2022/11/06 10:05:13;;;;;;;;;;;13.70;73.40;;;;;;4939572;28;19941;-80
2022/11/06 10:07:41;;;;;;;;;;;13.80;73.40;;;;;;4950200;29;19921;-81
2022/11/06 10:10:11;;;;;;;;;;;13.80;74.10;;;;;;4953484;29;19915;-81
2022/11/06 10:12:50;;;;;;;;;;;13.80;73.40;;;;;;4953561;28;19922;-81
2022/11/06 10:15:15;;;;;;;;;;;13.90;73.40;;;;;;4949949;28;19919;-81
2022/11/06 10:17:47;;;;;;;;;;;13.90;73.40;;;;;;4953469;29;20061;-81
2022/11/06 10:20:20;;;;;;;;;;;13.90;73.70;;;;;;4952281;28;19915;-81
2022/11/06 10:23:12;;;;;;;;;;;13.90;73.40;;;;;;4950152;28;19922;-81
2022/11/06 10:25:59;;;;;;;;;;;13.90;73.40;;;;;;4953447;28;19919;-81
2022/11/06 10:28:25;;;;;;;;;;;14.00;73.40;;;;;;4950156;29;19915;-80
2022/11/06 10:31:10;;;;;;;;;;;14.00;73.40;;;;;;4953282;29;19945;-81
2022/11/06 10:33:45;;;;;;;;;;;14.00;73.40;;;;;;4948222;28;19914;-81
2022/11/06 10:36:14;;;;;;;;;;;14.10;73.40;;;;;;4966345;28;19923;-81
2022/11/06 10:38:42;;;;;;;;;;;14.10;73.40;;;;;;4952385;28;20030;-81
2022/11/06 10:41:15;;;;;;;;;;;14.10;73.40;;;;;;4952538;29;20013;-81
2022/11/06 10:43:55;;;;;;;;;;;14.10;73.40;;;;;;4947665;28;20339;-81
2022/11/06 10:46:27;;;;;;;;;;;14.10;73.30;;;;;;4953165;29;19997;-81
2022/11/06 10:49:00;;;;;;;;;;;14.10;73.30;;;;;;4951440;28;19914;-80
2022/11/06 10:51:50;;;;;;;;;;;14.20;73.40;;;;;;4952109;28;19958;-81
2022/11/06 10:54:25;;;;;;;;;;;14.20;73.30;;;;;;4950853;28;19914;-81
2022/11/06 10:56:50;;;;;;;;;;;14.20;73.30;;;;;;4951276;28;19932;-81
2022/11/06 10:59:16;;;;;;;;;;;14.20;73.30;;;;;;4952601;28;20264;-81
2022/11/06 11:01:42;;;;;;;;;;;14.30;73.30;;;;;;4952948;28;19946;-81
2022/11/06 11:04:07;;;;;;;;;;;14.30;73.30;;;;;;4935983;29;19922;-81
2022/11/06 11:06:33;;;;;;;;;;;14.30;73.30;;;;;;4953216;29;20367;-81
2022/11/06 11:09:00;;;;;;;;;;;14.40;73.30;;;;;;4934057;29;19981;-83
2022/11/06 11:11:27;;;;;;;;;;;14.40;73.30;;;;;;4933705;29;19926;-82
2022/11/06 11:13:56;;;;;;;;;;;14.40;73.20;;;;;;4950037;29;19922;-82
2022/11/06 11:16:23;;;;;;;;;;;14.40;73.20;;;;;;4932746;29;19933;-84
2022/11/06 11:18:49;;;;;;;;;;;14.50;73.20;;;;;;4948087;28;19918;-79
2022/11/06 11:21:18;;;;;;;;;;;14.50;73.20;;;;;;4946980;28;20269;-84
2022/11/06 11:24:03;;;;;;;;;;;14.50;73.20;;;;;;4947428;28;19923;-83
2022/11/06 11:26:30;;;;;;;;;;;14.50;73.20;;;;;;4945239;29;20268;-85
2022/11/06 11:28:57;;;;;;;;;;;14.60;73.20;;;;;;4939346;29;19969;-86
2022/11/06 11:31:30;;;;;;;;;;;14.60;73.20;;;;;;4945658;28;20193;-79
2022/11/06 11:33:58;;;;;;;;;;;14.60;73.10;;;;;;4947367;28;19926;-84
2022/11/06 11:36:24;;;;;;;;;;;14.60;73.10;;;;;;4946250;29;19937;-82
2022/11/06 11:38:50;;;;;;;;;;;14.60;73.10;;;;;;4935500;29;19922;-81
2022/11/06 11:41:19;;;;;;;;;;;14.70;73.10;;;;;;4944059;28;19930;-81
2022/11/06 11:44:03;;;;;;;;;;;14.70;73.10;;;;;;4946859;29;19953;-80
2022/11/06 11:46:29;;;;;;;;;;;14.70;73.10;;;;;;4947400;28;20788;-82
2022/11/06 11:48:56;;;;;;;;;;;14.80;73.10;;;;;;4948505;28;20394;-82
2022/11/06 11:51:39;;;;;;;;;;;14.80;73.10;;;;;;4948558;28;19918;-81
2022/11/06 11:54:14;;;;;;;;;;;14.80;73.10;;;;;;4946388;28;20324;-81
2022/11/06 11:56:44;;;;;;;;;;;14.80;73.00;;;;;;4945693;29;19933;-80
2022/11/06 11:59:15;;;;;;;;;;;14.80;73.00;;;;;;4945615;29;20427;-82
2022/11/06 12:01:40;;;;;;;;;;;14.80;73.00;;;;;;4934185;29;20005;-79
2022/11/06 12:04:18;;;;;;;;;;;14.90;73.00;;;;;;4929913;29;20021;-82
2022/11/06 12:06:50;;;;;;;;;;;14.90;73.00;;;;;;4945240;29;20769;-82
2022/11/06 12:09:16;;;;;;;;;;;14.90;73.00;;;;;;4941430;28;19922;-80
2022/11/06 12:11:42;;;;;;;;;;;14.90;73.00;;;;;;4941463;29;20291;-81
2022/11/06 12:14:18;;;;;;;;;;;14.90;72.90;;;;;;4938968;29;20290;-81
2022/11/06 12:16:45;;;;;;;;;;;15.00;72.90;;;;;;4944796;29;19931;-81
2022/11/06 12:19:11;;;;;;;;;;;15.00;72.90;;;;;;4947005;29;19918;-81
2022/11/06 12:21:38;;;;;;;;;;;15.00;72.90;;;;;;4946329;29;19914;-81
2022/11/06 12:24:06;;;;;;;;;;;15.00;72.90;;;;;;4926229;28;19921;-82
2022/11/06 12:26:32;;;;;;;;;;;15.00;72.80;;;;;;4939540;29;19918;-81
2022/11/06 12:29:10;;;;;;;;;;;15.10;72.90;;;;;;4947173;28;20386;-83
2022/11/06 12:31:37;;;;;;;;;;;15.10;72.80;;;;;;4948258;29;19942;-81
2022/11/06 12:34:06;;;;;;;;;;;15.10;72.80;;;;;;4947633;28;20744;-82
2022/11/06 12:36:41;;;;;;;;;;;15.10;72.70;;;;;;4946766;28;19926;-83
2022/11/06 12:39:12;;;;;;;;;;;15.10;72.70;;;;;;4929717;29;20360;-83
2022/11/06 12:41:40;;;;;;;;;;;15.20;72.70;;;;;;4929684;29;19930;-81
2022/11/06 12:44:10;;;;;;;;;;;15.20;72.70;;;;;;4945475;29;19930;-81
2022/11/06 12:46:49;;;;;;;;;;;15.20;73.30;;;;;;4948172;29;19919;-82
2022/11/06 12:49:21;;;;;;;;;;;15.20;72.70;;;;;;4946254;28;19915;-82
2022/11/06 12:51:50;;;;;;;;;;;15.20;72.60;;;;;;4945094;29;20265;-81
2022/11/06 12:54:15;;;;;;;;;;;15.20;72.60;;;;;;4929619;29;19918;-81
2022/11/06 12:56:53;;;;;;;;;;;15.20;72.60;;;;;;4947285;28;19923;-81
2022/11/06 12:59:38;;;;;;;;;;;15.30;72.60;;;;;;4943789;29;19994;-81
2022/11/06 13:02:06;;;;;;;;;;;15.30;72.60;;;;;;4946364;29;20944;-81
2022/11/06 13:04:41;;;;;;;;;;;15.30;72.60;;;;;;4946781;28;20431;-82
2022/11/06 13:07:29;;;;;;;;;;;15.30;72.60;;;;;;4946218;29;19915;-82
2022/11/06 13:10:21;;;;;;;;;;;15.30;72.60;;;;;;4942508;29;20020;-82
2022/11/06 13:12:49;;;;;;;;;;;15.30;72.50;;;;;;4922710;29;20395;-81
2022/11/06 13:15:38;;;;;;;;;;;15.40;72.60;;;;;;4929571;29;19938;-83
2022/11/06 13:18:04;;;;;;;;;;;15.40;72.60;;;;;;4929061;29;19977;-81
2022/11/06 13:20:33;;;;;;;;;;;15.40;72.50;;;;;;4954319;28;19918;-81
2022/11/06 13:23:03;;;;;;;;;;;15.40;72.50;;;;;;4947404;29;19915;-81
2022/11/06 13:25:41;;;;;;;;;;;15.40;72.50;;;;;;4946799;28;19946;-81
2022/11/06 13:28:25;;;;;;;;;;;15.40;72.50;;;;;;4947573;29;20419;-81
2022/11/06 13:30:52;;;;;;;;;;;15.40;72.50;;;;;;4944781;29;19961;-81
2022/11/06 13:33:17;;;;;;;;;;;15.40;72.40;;;;;;4947157;28;19938;-81
2022/11/06 13:35:44;;;;;;;;;;;15.50;72.50;;;;;;4945879;28;19940;-81
2022/11/06 13:38:17;;;;;;;;;;;15.50;72.50;;;;;;4946679;28;19950;-82
2022/11/06 13:40:44;;;;;;;;;;;15.50;72.70;;;;;;4945760;29;19985;-82
2022/11/06 13:43:10;;;;;;;;;;;15.50;72.50;;;;;;4945406;29;19927;-82
2022/11/06 13:45:55;;;;;;;;;;;15.50;72.40;;;;;;4947124;28;19926;-81
2022/11/06 13:48:38;;;;;;;;;;;15.50;72.40;;;;;;4947292;29;19958;-82
2022/11/06 13:51:24;;;;;;;;;;;15.50;72.40;;;;;;4930126;29;19922;-82
2022/11/06 13:54:02;;;;;;;;;;;15.50;73.00;;;;;;4935822;29;19925;-82
2022/11/06 13:56:45;;;;;;;;;;;15.50;72.50;;;;;;4955411;28;20903;-80
2022/11/06 13:59:30;;;;;;;;;;;15.60;72.50;;;;;;4938086;29;20254;-82
2022/11/06 14:02:14;;;;;;;;;;;15.60;72.50;;;;;;4950271;28;20017;-81
2022/11/06 14:04:39;;;;;;;;;;;15.50;72.40;;;;;;4952523;29;19925;-81
2022/11/06 14:07:07;;;;;;;;;;;15.60;72.50;;;;;;4954843;28;19915;-81
2022/11/06 14:09:34;;;;;;;;;;;15.60;72.50;;;;;;4952041;28;20005;-81
2022/11/06 14:12:02;;;;;;;;;;;15.60;72.50;;;;;;4938863;29;19914;-82
2022/11/06 14:14:31;;;;;;;;;;;15.60;72.50;;;;;;4954410;28;19914;-81
2022/11/06 14:17:11;;;;;;;;;;;15.60;72.50;;;;;;4954255;29;19930;-80
2022/11/06 14:19:37;;;;;;;;;;;15.60;72.50;;;;;;4950344;28;19921;-82
2022/11/06 14:22:16;;;;;;;;;;;15.60;72.50;;;;;;4947735;28;19918;-82
2022/11/06 14:24:44;;;;;;;;;;;15.60;72.60;;;;;;4949818;29;20375;-82
2022/11/06 14:27:22;;;;;;;;;;;15.60;72.50;;;;;;4940512;29;19967;-83
2022/11/06 14:30:01;;;;;;;;;;;15.60;72.60;;;;;;4933801;28;19970;-82
2022/11/06 14:32:29;;;;;;;;;;;15.60;72.50;;;;;;4947188;29;19970;-82
2022/11/06 14:34:55;;;;;;;;;;;15.60;72.60;;;;;;4940087;28;19915;-83
2022/11/06 14:37:24;;;;;;;;;;;15.60;72.60;;;;;;4949714;29;19977;-82
2022/11/06 14:39:55;;;;;;;;;;;15.60;72.50;;;;;;4933784;29;19958;-82